| time (UTC) | temp F | wind direction | speed MPH | gust MPH | rain 1hr in | rain 24hr in | rain mn in | humidity % | barometer mb |
| 20260906213650 | 98 | 105 | 11.0 | 23.0 | 0.00 | 0.00 | 0.00 | 35 | 1011.0 |
| 20260906213144 | 101 | 77 | 8.0 | 17.0 | 0.00 | 0.00 | 0.00 | 34 | 1011.1 |
| 20260906212642 | 101 | 75 | 10.0 | 13.0 | 0.00 | 0.00 | 0.00 | 34 | 1011.2 |
| 20260906212137 | 100 | 72 | 10.0 | 15.0 | 0.00 | 0.00 | 0.00 | 34 | 1011.0 |
| 20260906211637 | 100 | 50 | 7.0 | 19.0 | 0.00 | 0.00 | 0.00 | 34 | 1011.2 |
| 20260906211132 | 98 | 61 | 11.0 | 12.0 | 0.00 | 0.00 | 0.00 | 35 | 1011.2 |
| 20260906210628 | 102 | 60 | 16.0 | 21.0 | 0.00 | 0.00 | 0.00 | 34 | 1011.2 |
| 20260906210122 | 100 | 65 | 13.0 | 23.0 | 0.00 | 0.00 | 0.00 | 34 | 1011.4 |
| 20260906205618 | 100 | 74 | 16.0 | 21.0 | 0.00 | 0.00 | 0.00 | 34 | 1011.5 |
| 20260906205114 | 102 | 105 | 10.0 | 14.0 | 0.00 | 0.00 | 0.00 | 33 | 1011.6 |
| 20260906204613 | 100 | 119 | 10.0 | 18.0 | 0.00 | 0.00 | 0.00 | 34 | 1011.6 |
| 20260906204108 | 100 | 74 | 11.0 | 14.0 | 0.00 | 0.00 | 0.00 | 34 | 1011.6 |
| 20260906203608 | 97 | 118 | 6.0 | 11.0 | 0.00 | 0.00 | 0.00 | 35 | 1011.8 |
| 20260906203102 | 100 | 56 | 5.0 | 23.0 | 0.00 | 0.00 | 0.00 | 34 | 1011.9 |
| 20260906202554 | 101 | 29 | 3.0 | 13.0 | 0.00 | 0.00 | 0.00 | 32 | 1012.0 |
| 20260906202054 | 99 | 106 | 11.0 | 16.0 | 0.00 | 0.00 | 0.00 | 33 | 1012.1 |
| 20260906201554 | 99 | 94 | 19.0 | 27.0 | 0.00 | 0.00 | 0.00 | 34 | 1011.9 |
| 20260906201053 | 98 | 73 | 4.0 | 20.0 | 0.00 | 0.00 | 0.00 | 33 | 1011.9 |
| 20260906200549 | 98 | 81 | 14.0 | 24.0 | 0.00 | 0.00 | 0.00 | 34 | 1012.3 |
| 20260906200045 | 98 | 50 | 5.0 | 14.0 | 0.00 | 0.00 | 0.00 | 34 | 1012.2 |
| 20260906195540 | 100 | 88 | 10.0 | 15.0 | 0.00 | 0.00 | 0.00 | 33 | 1012.2 |
| 20260906195037 | 100 | 56 | 7.0 | 22.0 | 0.00 | 0.00 | 0.00 | 33 | 1012.1 |
| 20260906194532 | 98 | 297 | 0.0 | 13.0 | 0.00 | 0.00 | 0.00 | 34 | 1012.2 |
| 20260906194027 | 100 | 100 | 6.0 | 26.0 | 0.00 | 0.00 | 0.00 | 33 | 1012.2 |
| 20260906193522 | 99 | 100 | 5.0 | 13.0 | 0.00 | 0.00 | 0.00 | 33 | 1012.4 |
| 20260906193017 | 99 | 86 | 9.0 | 18.0 | 0.00 | 0.00 | 0.00 | 33 | 1012.4 |
| 20260906192513 | 97 | 114 | 11.0 | 12.0 | 0.00 | 0.00 | 0.00 | 34 | 1012.4 |
| 20260906192012 | 99 | 73 | 5.0 | 23.0 | 0.00 | 0.00 | 0.00 | 34 | 1012.6 |
| 20260906191507 | 98 | 106 | 6.0 | 20.0 | 0.00 | 0.00 | 0.00 | 34 | 1012.7 |
| 20260906191006 | 100 | 72 | 25.0 | 37.0 | 0.00 | 0.00 | 0.00 | 34 | 1012.7 |
| 20260906190505 | 99 | 65 | 9.0 | 32.0 | 0.00 | 0.00 | 0.00 | 34 | 1012.8 |
| 20260906190000 | 98 | 80 | 13.0 | 20.0 | 0.00 | 0.00 | 0.00 | 34 | 1012.7 |
| 20260906185459 | 98 | 188 | 5.0 | 16.0 | 0.00 | 0.00 | 0.00 | 35 | 1012.8 |
| 20260906184958 | 99 | 113 | 12.0 | 31.0 | 0.00 | 0.00 | 0.00 | 35 | 1012.8 |
| 20260906184454 | 98 | 114 | 7.0 | 22.0 | 0.00 | 0.00 | 0.00 | 36 | 1012.8 |
| 20260906183949 | 98 | 129 | 9.0 | 13.0 | 0.00 | 0.00 | 0.00 | 35 | 1013.0 |
| 20260906183445 | 98 | 116 | 11.0 | 19.0 | 0.00 | 0.00 | 0.00 | 36 | 1013.2 |
| 20260906182940 | 98 | 145 | 6.0 | 19.0 | 0.00 | 0.00 | 0.00 | 36 | 1013.0 |
| 20260906182436 | 99 | 64 | 12.0 | 20.0 | 0.00 | 0.00 | 0.00 | 35 | 1013.0 |
| 20260906181931 | 98 | 106 | 4.0 | 21.0 | 0.00 | 0.00 | 0.00 | 36 | 1013.5 |
| 20260906181427 | 98 | 305 | 3.0 | 10.0 | 0.00 | 0.00 | 0.00 | 36 | 1013.5 |
| 20260906180923 | 96 | 80 | 11.0 | 14.0 | 0.00 | 0.00 | 0.00 | 38 | 1013.4 |
| 20260906180417 | 97 | 183 | 4.0 | 19.0 | 0.00 | 0.00 | 0.00 | 38 | 1013.5 |
| 20260906175915 | 97 | 91 | 10.0 | 20.0 | 0.00 | 0.00 | 0.00 | 37 | 1013.8 |
| 20260906175410 | 96 | 76 | 7.0 | 9.0 | 0.00 | 0.00 | 0.00 | 40 | 1013.5 |
| 20260906174909 | 95 | 54 | 9.0 | 11.0 | 0.00 | 0.00 | 0.00 | 40 | 1013.6 |
| 20260906174408 | 96 | 52 | 13.0 | 14.0 | 0.00 | 0.00 | 0.00 | 40 | 1014.1 |
| 20260906173903 | 96 | 112 | 16.0 | 19.0 | 0.00 | 0.00 | 0.00 | 40 | 1013.9 |
| 20260906173359 | 96 | 109 | 11.0 | 14.0 | 0.00 | 0.00 | 0.00 | 41 | 1014.2 |
| 20260906172858 | 95 | 87 | 3.0 | 11.0 | 0.00 | 0.00 | 0.00 | 40 | 1014.3 |
| 20260906172354 | 96 | 50 | 9.0 | 14.0 | 0.00 | 0.00 | 0.00 | 40 | 1014.4 |
| 20260906171849 | 95 | 28 | 2.0 | 9.0 | 0.00 | 0.00 | 0.00 | 40 | 1014.3 |
| 20260906171344 | 97 | 84 | 9.0 | 11.0 | 0.00 | 0.00 | 0.00 | 40 | 1014.5 |
| 20260906170839 | 96 | 264 | 3.0 | 14.0 | 0.00 | 0.00 | 0.00 | 40 | 1014.6 |
| 20260906170335 | 95 | 87 | 9.0 | 17.0 | 0.00 | 0.00 | 0.00 | 41 | 1014.5 |
| 20260906165832 | 96 | 40 | 6.0 | 17.0 | 0.00 | 0.00 | 0.00 | 40 | 1014.6 |
| 20260906165330 | 95 | 319 | 3.0 | 8.0 | 0.00 | 0.00 | 0.00 | 42 | 1014.6 |
| 20260906164826 | 94 | 62 | 5.0 | 9.0 | 0.00 | 0.00 | 0.00 | 44 | 1014.6 |
| 20260906164325 | 96 | 20 | 6.0 | 14.0 | 0.00 | 0.00 | 0.00 | 43 | 1014.7 |
| 20260906163821 | 95 | 64 | 0.0 | 9.0 | 0.00 | 0.00 | 0.00 | 42 | 1014.8 |
| 20260906163317 | 94 | 296 | 0.0 | 7.0 | 0.00 | 0.00 | 0.00 | 44 | 1014.8 |
| 20260906162814 | 96 | 89 | 9.0 | 13.0 | 0.00 | 0.00 | 0.00 | 42 | 1014.8 |
| 20260906162314 | 96 | 82 | 5.0 | 15.0 | 0.00 | 0.00 | 0.00 | 42 | 1014.9 |
| 20260906161809 | 96 | 41 | 0.0 | 9.0 | 0.00 | 0.00 | 0.00 | 42 | 1014.7 |
| 20260906161308 | 95 | 285 | 3.0 | 6.0 | 0.00 | 0.00 | 0.00 | 42 | 1014.8 |
| 20260906160807 | 94 | 280 | 0.0 | 5.0 | 0.00 | 0.00 | 0.00 | 44 | 1014.9 |
| 20260906160302 | 93 | 34 | 6.0 | 6.0 | 0.00 | 0.00 | 0.00 | 43 | 1015.0 |
| 20260906155759 | 93 | 89 | 0.0 | 6.0 | 0.00 | 0.00 | 0.00 | 44 | 1014.9 |
| 20260906155254 | 94 | 234 | 6.0 | 7.0 | 0.00 | 0.00 | 0.00 | 44 | 1014.7 |
| 20260906154749 | 93 | 258 | 3.0 | 5.0 | 0.00 | 0.00 | 0.00 | 45 | 1014.9 |
| 20260906154244 | 92 | 214 | 3.0 | 4.0 | 0.00 | 0.00 | 0.00 | 47 | 1014.9 |
| 20260906153743 | 91 | 267 | 4.0 | 5.0 | 0.00 | 0.00 | 0.00 | 48 | 1014.7 |
| 20260906153237 | 91 | 240 | 0.0 | 7.0 | 0.00 | 0.00 | 0.00 | 48 | 1014.7 |
| 20260906152733 | 90 | 192 | 3.0 | 5.0 | 0.00 | 0.00 | 0.00 | 49 | 1014.5 |
| 20260906152227 | 90 | 138 | 4.0 | 7.0 | 0.00 | 0.00 | 0.00 | 50 | 1014.7 |
| 20260906151727 | 90 | 280 | 0.0 | 5.0 | 0.00 | 0.00 | 0.00 | 50 | 1014.5 |
| 20260906151222 | 92 | 233 | 5.0 | 5.0 | 0.00 | 0.00 | 0.00 | 48 | 1014.5 |
| 20260906150718 | 90 | 157 | 0.0 | 3.0 | 0.00 | 0.00 | 0.00 | 49 | 1014.3 |
| 20260906150213 | 89 | 288 | 3.0 | 5.0 | 0.00 | 0.00 | 0.00 | 51 | 1014.6 |
| 20260906145712 | 89 | 190 | 2.0 | 4.0 | 0.00 | 0.00 | 0.00 | 51 | 1014.7 |
| 20260906145211 | 89 | 101 | 5.0 | 7.0 | 0.00 | 0.00 | 0.00 | 52 | 1014.4 |
| 20260906144706 | 87 | 167 | 3.0 | 6.0 | 0.00 | 0.00 | 0.00 | 55 | 1014.3 |
| 20260906144201 | 86 | 110 | 2.0 | 6.0 | 0.00 | 0.00 | 0.00 | 55 | 1014.4 |
| 20260906143700 | 87 | 235 | 2.0 | 5.0 | 0.00 | 0.00 | 0.00 | 54 | 1014.5 |
| 20260906143158 | 85 | 142 | 0.0 | 5.0 | 0.00 | 0.00 | 0.00 | 56 | 1014.8 |
| 20260906142652 | 86 | 143 | 0.0 | 6.0 | 0.00 | 0.00 | 0.00 | 57 | 1014.9 |
| 20260906142147 | 86 | 106 | 5.0 | 6.0 | 0.00 | 0.00 | 0.00 | 58 | 1014.5 |
| 20260906141646 | 86 | 47 | 4.0 | 7.0 | 0.00 | 0.00 | 0.00 | 58 | 1014.3 |
| 20260906141141 | 85 | 121 | 0.0 | 8.0 | 0.00 | 0.00 | 0.00 | 59 | 1014.5 |
| 20260906140640 | 84 | 112 | 7.0 | 7.0 | 0.00 | 0.00 | 0.00 | 61 | 1014.4 |
| 20260906140135 | 84 | 115 | 5.0 | 7.0 | 0.00 | 0.00 | 0.00 | 60 | 1014.7 |
| 20260906135632 | 84 | 80 | 0.0 | 5.0 | 0.00 | 0.00 | 0.00 | 61 | 1014.7 |
| 20260906135128 | 84 | 112 | 5.0 | 8.0 | 0.00 | 0.00 | 0.00 | 62 | 1014.6 |
| 20260906134624 | 83 | 133 | 4.0 | 7.0 | 0.00 | 0.00 | 0.00 | 63 | 1014.5 |
| 20260906134119 | 83 | 89 | 6.0 | 8.0 | 0.00 | 0.00 | 0.00 | 63 | 1014.6 |
| 20260906133615 | 83 | 80 | 0.0 | 7.0 | 0.00 | 0.00 | 0.00 | 64 | 1014.5 |
| 20260906133115 | 82 | 84 | 2.0 | 6.0 | 0.00 | 0.00 | 0.00 | 64 | 1014.5 |
| 20260906132610 | 82 | 75 | 3.0 | 6.0 | 0.00 | 0.00 | 0.00 | 64 | 1014.5 |
| 20260906132106 | 82 | 120 | 4.0 | 8.0 | 0.00 | 0.00 | 0.00 | 66 | 1014.4 |
| 20260906131601 | 82 | 101 | 4.0 | 7.0 | 0.00 | 0.00 | 0.00 | 66 | 1014.3 |
| 20260906131056 | 81 | 83 | 3.0 | 5.0 | 0.00 | 0.00 | 0.00 | 67 | 1014.2 |
| 20260906130556 | 81 | 60 | 3.0 | 6.0 | 0.00 | 0.00 | 0.00 | 67 | 1014.2 |
| 20260906130051 | 81 | 128 | 4.0 | 5.0 | 0.00 | 0.00 | 0.00 | 67 | 1013.7 |
| 20260906125548 | 80 | 117 | 0.0 | 4.0 | 0.00 | 0.00 | 0.00 | 68 | 1013.7 |
| 20260906125043 | 80 | 110 | 2.0 | 5.0 | 0.00 | 0.00 | 0.00 | 68 | 1013.8 |
| 20260906124538 | 80 | 108 | 2.0 | 5.0 | 0.00 | 0.00 | 0.00 | 69 | 1013.8 |
| 20260906124033 | 79 | 89 | 0.0 | 5.0 | 0.00 | 0.00 | 0.00 | 70 | 1013.8 |
| 20260906123532 | 79 | 115 | 4.0 | 4.0 | 0.00 | 0.00 | 0.00 | 71 | 1013.6 |
| 20260906123028 | 78 | 103 | 5.0 | 5.0 | 0.00 | 0.00 | 0.00 | 72 | 1013.6 |
| 20260906122527 | 78 | 98 | 2.0 | 4.0 | 0.00 | 0.00 | 0.00 | 72 | 1013.5 |
| 20260906122023 | 78 | 105 | 3.0 | 5.0 | 0.00 | 0.00 | 0.00 | 72 | 1013.5 |
| 20260906121519 | 78 | 103 | 0.0 | 3.0 | 0.00 | 0.00 | 0.00 | 72 | 1013.4 |
| 20260906121015 | 78 | 147 | 0.0 | 0.0 | 0.00 | 0.00 | 0.00 | 72 | 1013.2 |
| 20260906120510 | 78 | 135 | 2.0 | 3.0 | 0.00 | 0.00 | 0.00 | 72 | 1013.4 |
| 20260906120008 | 78 | 164 | 0.0 | 0.0 | 0.00 | 0.00 | 0.00 | 72 | 1013.3 |
| 20260906115501 | 79 | 114 | 0.0 | 3.0 | 0.00 | 0.00 | 0.00 | 71 | 1013.3 |
| 20260906114956 | 79 | 94 | 2.0 | 5.0 | 0.00 | 0.00 | 0.00 | 71 | 1013.3 |
| 20260906114450 | 79 | 84 | 3.0 | 7.0 | 0.00 | 0.00 | 0.00 | 70 | 1013.2 |
| 20260906113947 | 79 | 109 | 5.0 | 6.0 | 0.00 | 0.00 | 0.00 | 70 | 1013.2 |
| 20260906113445 | 79 | 87 | 5.0 | 5.0 | 0.00 | 0.00 | 0.00 | 70 | 1013.1 |
| 20260906112941 | 79 | 82 | 5.0 | 7.0 | 0.00 | 0.00 | 0.00 | 70 | 1013.1 |
| 20260906112436 | 79 | 76 | 2.0 | 5.0 | 0.00 | 0.00 | 0.00 | 70 | 1013.1 |
| 20260906111932 | 79 | 150 | 0.0 | 4.0 | 0.00 | 0.00 | 0.00 | 70 | 1012.9 |
| 20260906111431 | 79 | 146 | 0.0 | 6.0 | 0.00 | 0.00 | 0.00 | 70 | 1013.0 |
| 20260906110926 | 79 | 117 | 2.0 | 5.0 | 0.00 | 0.00 | 0.00 | 70 | 1013.0 |
| 20260906110421 | 79 | 98 | 4.0 | 5.0 | 0.00 | 0.00 | 0.00 | 70 | 1013.0 |
| 20260906105920 | 79 | 95 | 2.0 | 4.0 | 0.00 | 0.00 | 0.00 | 70 | 1013.0 |
| 20260906105416 | 79 | 129 | 0.0 | 0.0 | 0.00 | 0.00 | 0.00 | 70 | 1012.8 |
| 20260906104912 | 79 | 122 | 0.0 | 4.0 | 0.00 | 0.00 | 0.00 | 69 | 1012.9 |
| 20260906104410 | 79 | 105 | 4.0 | 5.0 | 0.00 | 0.00 | 0.00 | 69 | 1012.9 |
| 20260906103910 | 80 | 103 | 5.0 | 5.0 | 0.00 | 0.00 | 0.00 | 69 | 1012.8 |
| 20260906103408 | 80 | 116 | 3.0 | 4.0 | 0.00 | 0.00 | 0.00 | 69 | 1013.1 |
| 20260906102904 | 80 | 89 | 5.0 | 5.0 | 0.00 | 0.00 | 0.00 | 68 | 1012.7 |
| 20260906102403 | 80 | 105 | 3.0 | 4.0 | 0.00 | 0.00 | 0.00 | 68 | 1012.8 |
| 20260906101858 | 80 | 141 | 0.0 | 3.0 | 0.00 | 0.00 | 0.00 | 68 | 1012.9 |
| 20260906101353 | 80 | 114 | 3.0 | 4.0 | 0.00 | 0.00 | 0.00 | 67 | 1012.9 |
| 20260906100849 | 80 | 94 | 3.0 | 5.0 | 0.00 | 0.00 | 0.00 | 67 | 1012.7 |
| 20260906100348 | 80 | 107 | 3.0 | 5.0 | 0.00 | 0.00 | 0.00 | 66 | 1012.9 |
| 20260906095843 | 81 | 83 | 4.0 | 5.0 | 0.00 | 0.00 | 0.00 | 66 | 1012.8 |
| 20260906095338 | 81 | 177 | 3.0 | 3.0 | 0.00 | 0.00 | 0.00 | 65 | 1012.7 |
| 20260906094838 | 81 | 102 | 3.0 | 4.0 | 0.00 | 0.00 | 0.00 | 65 | 1012.5 |
| 20260906094333 | 81 | 128 | 3.0 | 4.0 | 0.00 | 0.00 | 0.00 | 65 | 1012.8 |
| 20260906093829 | 81 | 72 | 2.0 | 4.0 | 0.00 | 0.00 | 0.00 | 65 | 1012.6 |
| 20260906093325 | 81 | 123 | 6.0 | 6.0 | 0.00 | 0.00 | 0.00 | 65 | 1012.5 |
| 20260906092820 | 81 | 119 | 3.0 | 5.0 | 0.00 | 0.00 | 0.00 | 64 | 1012.5 |
| 20260906092320 | 81 | 136 | 0.0 | 5.0 | 0.00 | 0.00 | 0.00 | 64 | 1012.5 |
| 20260906091815 | 81 | 115 | 0.0 | 6.0 | 0.00 | 0.00 | 0.00 | 63 | 1012.5 |
| 20260906091311 | 81 | 117 | 7.0 | 7.0 | 0.00 | 0.00 | 0.00 | 63 | 1012.5 |
| 20260906090808 | 81 | 103 | 4.0 | 5.0 | 0.00 | 0.00 | 0.00 | 63 | 1012.5 |
| 20260906090306 | 81 | 130 | 0.0 | 6.0 | 0.00 | 0.00 | 0.00 | 63 | 1012.4 |
| 20260906085801 | 81 | 119 | 0.0 | 7.0 | 0.00 | 0.00 | 0.00 | 63 | 1012.4 |
| 20260906085259 | 82 | 69 | 2.0 | 5.0 | 0.00 | 0.00 | 0.00 | 63 | 1012.4 |
| 20260906084754 | 82 | 95 | 0.0 | 3.0 | 0.00 | 0.00 | 0.00 | 62 | 1012.3 |
| 20260906084248 | 82 | 135 | 0.0 | 2.0 | 0.00 | 0.00 | 0.00 | 62 | 1012.4 |
| 20260906083743 | 82 | 119 | 4.0 | 6.0 | 0.00 | 0.00 | 0.00 | 62 | 1012.2 |
| 20260906083239 | 82 | 107 | 7.0 | 8.0 | 0.00 | 0.00 | 0.00 | 61 | 1012.2 |
| 20260906082733 | 82 | 239 | 0.0 | 6.0 | 0.00 | 0.00 | 0.00 | 61 | 1012.1 |
| 20260906082228 | 82 | 100 | 2.0 | 8.0 | 0.00 | 0.00 | 0.00 | 61 | 1012.3 |
| 20260906081725 | 82 | 94 | 6.0 | 7.0 | 0.00 | 0.00 | 0.00 | 61 | 1012.3 |
| 20260906081219 | 82 | 105 | 6.0 | 8.0 | 0.00 | 0.00 | 0.00 | 60 | 1012.3 |
| 20260906080716 | 82 | 119 | 4.0 | 7.0 | 0.00 | 0.00 | 0.00 | 60 | 1012.3 |
| 20260906080212 | 82 | 116 | 4.0 | 9.0 | 0.00 | 0.00 | 0.00 | 60 | 1012.3 |
| 20260906075706 | 83 | 101 | 6.0 | 9.0 | 0.00 | 0.00 | 0.00 | 59 | 1012.5 |
| 20260906075200 | 83 | 98 | 3.0 | 7.0 | 0.00 | 0.00 | 0.00 | 59 | 1012.4 |
| 20260906074655 | 83 | 116 | 4.0 | 6.0 | 0.00 | 0.00 | 0.00 | 59 | 1012.4 |
| 20260906074149 | 83 | 134 | 3.0 | 9.0 | 0.00 | 0.00 | 0.00 | 58 | 1012.3 |
| 20260906073644 | 83 | 132 | 4.0 | 6.0 | 0.00 | 0.00 | 0.00 | 58 | 1012.2 |
| 20260906073140 | 83 | 212 | 4.0 | 6.0 | 0.00 | 0.00 | 0.00 | 58 | 1012.5 |
| 20260906072635 | 83 | 154 | 3.0 | 9.0 | 0.00 | 0.00 | 0.00 | 58 | 1012.2 |
| 20260906072130 | 83 | 161 | 0.0 | 4.0 | 0.00 | 0.00 | 0.00 | 58 | 1012.4 |
| 20260906071626 | 83 | 164 | 4.0 | 5.0 | 0.00 | 0.00 | 0.00 | 58 | 1012.5 |
| 20260906071121 | 83 | 188 | 0.0 | 6.0 | 0.00 | 0.00 | 0.00 | 57 | 1012.4 |
| 20260906070618 | 83 | 177 | 4.0 | 5.0 | 0.00 | 0.00 | 0.00 | 57 | 1012.4 |
| 20260906070113 | 83 | 118 | 2.0 | 6.0 | 0.00 | 0.00 | 0.00 | 57 | 1012.2 |
| 20260906065612 | 83 | 218 | 2.0 | 5.0 | 0.00 | 0.00 | 0.00 | 57 | 1012.5 |
| 20260906065108 | 83 | 172 | 3.0 | 8.0 | 0.00 | 0.00 | 0.00 | 57 | 1012.3 |
| 20260906064604 | 84 | 183 | 3.0 | 7.0 | 0.00 | 0.00 | 0.00 | 56 | 1012.5 |
| 20260906064058 | 84 | 132 | 4.0 | 7.0 | 0.00 | 0.00 | 0.00 | 56 | 1012.5 |
| 20260906063554 | 84 | 103 | 5.0 | 6.0 | 0.00 | 0.00 | 0.00 | 56 | 1012.8 |
| 20260906063049 | 84 | 112 | 5.0 | 5.0 | 0.00 | 0.00 | 0.00 | 56 | 1012.6 |
| 20260906062545 | 84 | 99 | 6.0 | 6.0 | 0.00 | 0.00 | 0.00 | 56 | 1012.6 |
| 20260906062038 | 84 | 103 | 7.0 | 9.0 | 0.00 | 0.00 | 0.00 | 55 | 1012.6 |
| 20260906061535 | 84 | 110 | 3.0 | 7.0 | 0.00 | 0.00 | 0.00 | 55 | 1012.7 |
| 20260906061034 | 85 | 91 | 0.0 | 9.0 | 0.00 | 0.00 | 0.00 | 55 | 1012.6 |
| 20260906060531 | 85 | 99 | 7.0 | 10.0 | 0.00 | 0.00 | 0.00 | 54 | 1012.7 |
| 20260906060028 | 85 | 93 | 8.0 | 10.0 | 0.00 | 0.00 | 0.00 | 54 | 1012.6 |
| 20260906055523 | 85 | 97 | 9.0 | 12.0 | 0.00 | 0.00 | 0.00 | 53 | 1012.8 |
| 20260906055019 | 86 | 110 | 8.0 | 11.0 | 0.00 | 0.00 | 0.00 | 53 | 1012.9 |
| 20260906054519 | 86 | 116 | 9.0 | 14.0 | 0.00 | 0.00 | 0.00 | 53 | 1012.9 |
| 20260906054014 | 86 | 76 | 5.0 | 12.0 | 0.00 | 0.00 | 0.00 | 52 | 1012.8 |
| 20260906053510 | 86 | 126 | 6.0 | 9.0 | 0.00 | 0.00 | 0.00 | 52 | 1012.6 |
| 20260906053005 | 86 | 114 | 5.0 | 9.0 | 0.00 | 0.00 | 0.00 | 52 | 1012.5 |
| 20260906052501 | 86 | 81 | 5.0 | 7.0 | 0.00 | 0.00 | 0.00 | 52 | 1012.5 |
| 20260906051958 | 86 | 114 | 2.0 | 7.0 | 0.00 | 0.00 | 0.00 | 52 | 1012.3 |
| 20260906051453 | 86 | 108 | 4.0 | 9.0 | 0.00 | 0.00 | 0.00 | 52 | 1012.5 |
| 20260906050949 | 86 | 82 | 3.0 | 5.0 | 0.00 | 0.00 | 0.00 | 52 | 1012.5 |
| 20260906050448 | 86 | 114 | 0.0 | 5.0 | 0.00 | 0.00 | 0.00 | 51 | 1012.6 |
| 20260906045948 | 86 | 94 | 5.0 | 7.0 | 0.00 | 0.00 | 0.00 | 51 | 1012.5 |
| 20260906045447 | 86 | 99 | 3.0 | 6.0 | 0.00 | 0.00 | 0.00 | 51 | 1012.7 |
| 20260906044943 | 86 | 121 | 3.0 | 7.0 | 0.00 | 0.00 | 0.00 | 50 | 1012.9 |
| 20260906044437 | 86 | 107 | 4.0 | 9.0 | 0.00 | 0.00 | 0.00 | 50 | 1012.7 |
| 20260906043927 | 86 | 70 | 4.0 | 6.0 | 0.00 | 0.00 | 0.00 | 50 | 1012.7 |
| 20260906043423 | 87 | 89 | 0.0 | 5.0 | 0.00 | 0.00 | 0.00 | 50 | 1012.6 |
| 20260906042919 | 87 | 93 | 0.0 | 6.0 | 0.00 | 0.00 | 0.00 | 49 | 1012.7 |
| 20260906042418 | 87 | 94 | 2.0 | 7.0 | 0.00 | 0.00 | 0.00 | 49 | 1012.6 |
| 20260906041912 | 87 | 70 | 3.0 | 8.0 | 0.00 | 0.00 | 0.00 | 49 | 1012.7 |
| 20260906041403 | 87 | 95 | 9.0 | 10.0 | 0.00 | 0.00 | 0.00 | 49 | 1012.8 |
| 20260906040903 | 88 | 86 | 3.0 | 9.0 | 0.00 | 0.00 | 0.00 | 48 | 1012.7 |
| 20260906040358 | 88 | 100 | 3.0 | 7.0 | 0.00 | 0.00 | 0.00 | 48 | 1012.9 |
| 20260906035853 | 88 | 92 | 6.0 | 9.0 | 0.00 | 0.00 | 0.00 | 48 | 1012.9 |
| 20260906035349 | 88 | 89 | 0.0 | 11.0 | 0.00 | 0.00 | 0.00 | 47 | 1012.5 |
| 20260906034843 | 88 | 104 | 4.0 | 5.0 | 0.00 | 0.00 | 0.00 | 47 | 1012.5 |
| 20260906034338 | 89 | 57 | 4.0 | 7.0 | 0.00 | 0.00 | 0.00 | 47 | 1012.6 |
| 20260906033834 | 89 | 132 | 2.0 | 11.0 | 0.00 | 0.00 | 0.00 | 46 | 1012.5 |
| 20260906033333 | 89 | 92 | 4.0 | 11.0 | 0.00 | 0.00 | 0.00 | 46 | 1012.7 |
| 20260906032830 | 89 | 102 | 5.0 | 12.0 | 0.00 | 0.00 | 0.00 | 46 | 1012.4 |
| 20260906032326 | 89 | 68 | 6.0 | 9.0 | 0.00 | 0.00 | 0.00 | 46 | 1012.7 |
| 20260906031821 | 89 | 59 | 8.0 | 17.0 | 0.00 | 0.00 | 0.00 | 46 | 1012.5 |
| 20260906031316 | 90 | 83 | 9.0 | 19.0 | 0.00 | 0.00 | 0.00 | 45 | 1012.3 |
| 20260906030816 | 90 | 87 | 6.0 | 11.0 | 0.00 | 0.00 | 0.00 | 45 | 1012.2 |
| 20260906030311 | 90 | 66 | 5.0 | 13.0 | 0.00 | 0.00 | 0.00 | 45 | 1012.3 |
| 20260906025811 | 90 | 97 | 11.0 | 13.0 | 0.00 | 0.00 | 0.00 | 44 | 1012.5 |
| 20260906025306 | 90 | 140 | 9.0 | 9.0 | 0.00 | 0.00 | 0.00 | 44 | 1012.4 |
| 20260906024804 | 91 | 68 | 5.0 | 13.0 | 0.00 | 0.00 | 0.00 | 43 | 1012.2 |
| 20260906024303 | 91 | 82 | 4.0 | 9.0 | 0.00 | 0.00 | 0.00 | 43 | 1011.9 |
| 20260906023759 | 91 | 80 | 5.0 | 10.0 | 0.00 | 0.00 | 0.00 | 43 | 1012.0 |
| 20260906023254 | 91 | 109 | 5.0 | 10.0 | 0.00 | 0.00 | 0.00 | 42 | 1011.8 |
| 20260906022750 | 91 | 116 | 5.0 | 11.0 | 0.00 | 0.00 | 0.00 | 42 | 1011.9 |
| 20260906022245 | 92 | 110 | 5.0 | 7.0 | 0.00 | 0.00 | 0.00 | 42 | 1011.7 |
| 20260906021741 | 92 | 132 | 9.0 | 12.0 | 0.00 | 0.00 | 0.00 | 42 | 1011.5 |
| 20260906021234 | 92 | 72 | 4.0 | 9.0 | 0.00 | 0.00 | 0.00 | 41 | 1011.5 |
| 20260906020729 | 92 | 102 | 7.0 | 10.0 | 0.00 | 0.00 | 0.00 | 41 | 1011.6 |
| 20260906020223 | 93 | 56 | 3.0 | 10.0 | 0.00 | 0.00 | 0.00 | 41 | 1011.4 |
| 20260906015718 | 93 | 93 | 7.0 | 12.0 | 0.00 | 0.00 | 0.00 | 41 | 1011.4 |
| 20260906015216 | 93 | 64 | 5.0 | 12.0 | 0.00 | 0.00 | 0.00 | 41 | 1011.4 |
| 20260906014710 | 93 | 54 | 5.0 | 12.0 | 0.00 | 0.00 | 0.00 | 40 | 1011.3 |
| 20260906014206 | 93 | 58 | 8.0 | 8.0 | 0.00 | 0.00 | 0.00 | 40 | 1011.1 |
| 20260906013702 | 94 | 101 | 6.0 | 10.0 | 0.00 | 0.00 | 0.00 | 40 | 1011.0 |
| 20260906013157 | 94 | 84 | 5.0 | 14.0 | 0.00 | 0.00 | 0.00 | 40 | 1010.9 |
| 20260906012657 | 94 | 42 | 8.0 | 11.0 | 0.00 | 0.00 | 0.00 | 39 | 1010.9 |
| 20260906012151 | 94 | 85 | 11.0 | 14.0 | 0.00 | 0.00 | 0.00 | 39 | 1010.8 |
| 20260906011647 | 95 | 103 | 10.0 | 14.0 | 0.00 | 0.00 | 0.00 | 39 | 1011.0 |
| 20260906011142 | 95 | 58 | 8.0 | 17.0 | 0.00 | 0.00 | 0.00 | 39 | 1010.8 |
| 20260906010637 | 95 | 124 | 0.0 | 9.0 | 0.00 | 0.00 | 0.00 | 39 | 1010.7 |
| 20260906010133 | 95 | 78 | 9.0 | 18.0 | 0.00 | 0.00 | 0.00 | 38 | 1010.8 |
| 20260906005632 | 96 | 72 | 9.0 | 14.0 | 0.00 | 0.00 | 0.00 | 38 | 1010.8 |
| 20260906005127 | 96 | 93 | 15.0 | 16.0 | 0.00 | 0.00 | 0.00 | 38 | 1010.7 |
| 20260906004626 | 96 | 86 | 7.0 | 17.0 | 0.00 | 0.00 | 0.00 | 38 | 1010.8 |
| 20260906004121 | 96 | 91 | 5.0 | 22.0 | 0.00 | 0.00 | 0.00 | 38 | 1010.6 |
| 20260906003616 | 96 | 97 | 10.0 | 17.0 | 0.00 | 0.00 | 0.00 | 37 | 1010.5 |
| 20260906003112 | 97 | 126 | 4.0 | 12.0 | 0.00 | 0.00 | 0.00 | 37 | 1010.5 |
| 20260906002607 | 97 | 95 | 4.0 | 8.0 | 0.00 | 0.00 | 0.00 | 37 | 1010.7 |
| 20260906002101 | 97 | 63 | 9.0 | 16.0 | 0.00 | 0.00 | 0.00 | 37 | 1010.4 |
| 20260906001556 | 97 | 107 | 12.0 | 25.0 | 0.00 | 0.00 | 0.00 | 37 | 1010.5 |
| 20260906001051 | 97 | 92 | 6.0 | 23.0 | 0.00 | 0.00 | 0.00 | 37 | 1010.6 |
| 20260906000547 | 97 | 70 | 10.0 | 17.0 | 0.00 | 0.00 | 0.00 | 37 | 1010.2 |
| 20260906000042 | 97 | 80 | 8.0 | 17.0 | 0.00 | 0.00 | 0.00 | 36 | 1010.4 |
| 20260905235541 | 98 | 107 | 16.0 | 23.0 | 0.00 | 0.00 | 0.00 | 36 | 1010.4 |
| 20260905235036 | 98 | 98 | 15.0 | 18.0 | 0.00 | 0.00 | 0.00 | 36 | 1010.2 |
| 20260905234532 | 98 | 86 | 9.0 | 18.0 | 0.00 | 0.00 | 0.00 | 36 | 1010.4 |
| 20260905234027 | 98 | 97 | 12.0 | 22.0 | 0.00 | 0.00 | 0.00 | 36 | 1010.0 |
| 20260905233522 | 98 | 109 | 5.0 | 13.0 | 0.00 | 0.00 | 0.00 | 35 | 1010.0 |
| 20260905233021 | 99 | 93 | 11.0 | 16.0 | 0.00 | 0.00 | 0.00 | 35 | 1010.1 |
| 20260905232517 | 99 | 96 | 11.0 | 23.0 | 0.00 | 0.00 | 0.00 | 35 | 1010.0 |
| 20260905232013 | 99 | 91 | 7.0 | 16.0 | 0.00 | 0.00 | 0.00 | 35 | 1010.0 |
| 20260905231508 | 99 | 88 | 6.0 | 15.0 | 0.00 | 0.00 | 0.00 | 34 | 1009.8 |
| 20260905231004 | 99 | 162 | 8.0 | 13.0 | 0.00 | 0.00 | 0.00 | 34 | 1010.0 |
| 20260905230503 | 100 | 91 | 10.0 | 13.0 | 0.00 | 0.00 | 0.00 | 34 | 1009.8 |
| 20260905230001 | 99 | 91 | 6.0 | 12.0 | 0.00 | 0.00 | 0.00 | 35 | 1009.8 |
| 20260905225456 | 100 | 93 | 17.0 | 24.0 | 0.00 | 0.00 | 0.00 | 34 | 1009.8 |
| 20260905224951 | 100 | 75 | 13.0 | 16.0 | 0.00 | 0.00 | 0.00 | 34 | 1010.1 |
| 20260905224446 | 100 | 81 | 0.0 | 9.0 | 0.00 | 0.00 | 0.00 | 33 | 1009.9 |
| 20260905223945 | 100 | 169 | 5.0 | 15.0 | 0.00 | 0.00 | 0.00 | 33 | 1010.1 |
| 20260905223443 | 99 | 133 | 5.0 | 9.0 | 0.00 | 0.00 | 0.00 | 34 | 1010.2 |
| 20260905222943 | 99 | 178 | 6.0 | 15.0 | 0.00 | 0.00 | 0.00 | 34 | 1010.1 |
| 20260905222438 | 99 | 100 | 6.0 | 22.0 | 0.00 | 0.00 | 0.00 | 34 | 1010.1 |
| 20260905221934 | 99 | 63 | 13.0 | 13.0 | 0.00 | 0.00 | 0.00 | 34 | 1009.9 |
| 20260905221430 | 99 | 105 | 9.0 | 17.0 | 0.00 | 0.00 | 0.00 | 33 | 1010.4 |
| 20260905220926 | 100 | 80 | 13.0 | 16.0 | 0.00 | 0.00 | 0.00 | 33 | 1010.2 |
| 20260905220422 | 98 | 123 | 7.0 | 10.0 | 0.00 | 0.00 | 0.00 | 34 | 1010.4 |
| 20260905215921 | 100 | 55 | 18.0 | 20.0 | 0.00 | 0.00 | 0.00 | 34 | 1010.5 |
| 20260905215417 | 99 | 74 | 9.0 | 10.0 | 0.00 | 0.00 | 0.00 | 34 | 1010.2 |
| 20260905214913 | 99 | 136 | 3.0 | 19.0 | 0.00 | 0.00 | 0.00 | 34 | 1010.2 |
| 20260905214409 | 99 | 48 | 6.0 | 13.0 | 0.00 | 0.00 | 0.00 | 34 | 1010.4 |